Time;durP1;ratioP1;P1;durP2;ratioP2;P2;SDS_P1;SDS_P2;PMS_P1;PMS_P2;Temp;Humidity;BMP_temperature;BMP_pressure;BME280_temperature;BME280_humidity;BME280_pressure;Samples;Min_cycle;Max_cycle;Signal;HPM_P1;HPM_P2
2023/03/18 00:00:54;;;;;;;4.20;2.45;;;-0.20;59.50;;;;;;5034619;28;20856;-83
2023/03/18 00:03:21;;;;;;;7.45;2.47;;;-0.20;59.60;;;;;;5033935;28;20026;-80
2023/03/18 00:05:47;;;;;;;4.13;2.20;;;-0.30;59.70;;;;;;5034045;28;20120;-82
2023/03/18 00:08:13;;;;;;;6.50;2.70;;;-0.30;59.80;;;;;;5048612;28;20386;-81
2023/03/18 00:10:39;;;;;;;8.10;2.60;;;-0.30;60.00;;;;;;5051680;28;20095;-82
2023/03/18 00:13:05;;;;;;;6.35;3.15;;;-0.30;60.00;;;;;;5041819;28;20041;-84
2023/03/18 00:15:31;;;;;;;7.50;2.78;;;-0.30;60.00;;;;;;5023163;28;20053;-81
2023/03/18 00:18:00;;;;;;;5.10;2.55;;;-0.30;60.10;;;;;;5018579;28;20061;-82
2023/03/18 00:20:37;;;;;;;4.90;2.47;;;-0.40;60.20;;;;;;5018926;28;20030;-83
2023/03/18 00:23:04;;;;;;;;;;;-0.40;60.30;;;;;;5018088;28;20053;-82
2023/03/18 00:25:33;;;;;;;5.07;2.63;;;-0.40;60.20;;;;;;5022427;28;19915;-82
2023/03/18 00:28:06;;;;;;;7.03;3.20;;;-0.40;60.30;;;;;;5035069;28;20087;-82
2023/03/18 00:30:33;;;;;;;3.45;1.85;;;-0.40;60.80;;;;;;5028055;28;20026;-80
2023/03/18 00:32:59;;;;;;;3.83;2.20;;;-0.50;60.80;;;;;;5016831;28;20021;-82
2023/03/18 00:35:29;;;;;;;10.50;2.45;;;-0.60;61.00;;;;;;5032109;28;20415;-82
2023/03/18 00:37:57;;;;;;;5.75;2.50;;;-0.50;61.20;;;;;;5034248;28;20029;-83
2023/03/18 00:40:29;;;;;;;6.22;2.63;;;-0.50;61.10;;;;;;5034636;28;20026;-82
2023/03/18 00:43:06;;;;;;;8.02;3.05;;;-0.40;61.30;;;;;;5041764;28;20014;-82
2023/03/18 00:45:35;;;;;;;4.72;2.33;;;-0.50;61.40;;;;;;5053865;28;20057;-83
2023/03/18 00:48:02;;;;;;;5.53;3.08;;;-0.60;61.60;;;;;;5055479;28;20022;-82
2023/03/18 00:50:28;;;;;;;7.57;3.00;;;-0.60;61.70;;;;;;5039834;28;20120;-82
2023/03/18 00:52:55;;;;;;;7.05;3.10;;;-0.60;62.00;;;;;;5032661;28;20029;-81
2023/03/18 00:55:21;;;;;;;4.80;2.78;;;-0.50;62.60;;;;;;5033466;28;20147;-82
2023/03/18 00:57:47;;;;;;;7.22;2.83;;;-0.50;61.90;;;;;;5020561;28;20031;-82
2023/03/18 01:00:15;;;;;;;5.50;2.30;;;-0.60;61.90;;;;;;5023032;28;20439;-83
2023/03/18 01:02:43;;;;;;;5.80;2.83;;;-0.60;62.30;;;;;;5031118;28;20052;-82
2023/03/18 01:05:12;;;;;;;8.32;2.60;;;-0.60;62.30;;;;;;5026849;28;20032;-82
2023/03/18 01:07:38;;;;;;;7.38;3.90;;;-0.60;63.00;;;;;;5016336;28;20109;-81
2023/03/18 01:10:05;;;;;;;4.90;2.63;;;-0.60;62.30;;;;;;5034644;28;20392;-82
2023/03/18 01:12:32;;;;;;;4.28;2.72;;;-0.70;62.30;;;;;;5020649;28;20057;-81
2023/03/18 01:14:58;;;;;;;7.28;4.05;;;-0.70;62.50;;;;;;5019963;28;20030;-83
2023/03/18 01:17:25;;;;;;;10.40;4.23;;;-0.80;62.90;;;;;;5024803;28;20033;-82
2023/03/18 01:19:51;;;;;;;9.38;3.58;;;-0.70;63.00;;;;;;5031994;28;20076;-82
2023/03/18 01:22:18;;;;;;;20.33;3.20;;;-0.80;63.20;;;;;;5033744;28;20018;-81
2023/03/18 01:24:45;;;;;;;8.63;3.33;;;-0.80;63.20;;;;;;5030521;28;20029;-82
2023/03/18 01:27:11;;;;;;;6.40;2.65;;;-0.80;63.20;;;;;;5023274;28;20021;-81
2023/03/18 01:29:37;;;;;;;6.60;3.05;;;-0.80;63.50;;;;;;5015019;28;20446;-81
2023/03/18 01:32:03;;;;;;;6.45;3.00;;;-0.90;63.60;;;;;;5027835;28;20021;-81
2023/03/18 01:34:29;;;;;;;6.13;3.53;;;-0.90;63.80;;;;;;5040362;28;20033;-81
2023/03/18 01:36:56;;;;;;;4.95;2.58;;;-1.00;63.90;;;;;;5031301;28;20033;-80
2023/03/18 01:39:22;;;;;;;7.40;2.97;;;-1.00;64.00;;;;;;5047534;28;20045;-81
2023/03/18 01:41:49;;;;;;;5.05;2.92;;;-1.00;64.20;;;;;;5036971;28;20048;-81
2023/03/18 01:44:19;;;;;;;7.85;3.15;;;-1.00;64.40;;;;;;5025154;28;20029;-83
2023/03/18 01:46:47;;;;;;;8.70;4.35;;;-0.90;64.20;;;;;;5020104;28;20018;-81
2023/03/18 01:49:17;;;;;;;7.22;3.05;;;-0.80;64.10;;;;;;5022664;28;20029;-81
2023/03/18 01:52:14;;;;;;;3.53;2.70;;;-0.70;63.80;;;;;;5022760;28;20014;-83
2023/03/18 01:54:45;;;;;;;7.95;3.72;;;-0.70;63.60;;;;;;5021818;28;20360;-81
2023/03/18 01:57:11;;;;;;;9.32;3.65;;;-0.80;63.50;;;;;;5024843;28;20037;-81
2023/03/18 01:59:40;;;;;;;7.35;3.47;;;-0.80;63.60;;;;;;5024672;28;20022;-82
2023/03/18 02:02:12;;;;;;;9.77;3.50;;;-0.80;63.90;;;;;;5023609;28;20058;-83
2023/03/18 02:04:42;;;;;;;3.55;2.17;;;-0.80;64.10;;;;;;5022469;28;20089;-81
2023/03/18 02:07:18;;;;;;;5.03;2.90;;;-0.90;64.00;;;;;;5014304;28;20099;-82
2023/03/18 02:09:45;;;;;;;5.40;3.00;;;-0.90;63.90;;;;;;5030681;28;20495;-82
2023/03/18 02:12:15;;;;;;;5.03;2.58;;;-0.90;64.10;;;;;;5027909;28;20029;-81
2023/03/18 02:14:41;;;;;;;2.60;2.08;;;-0.90;64.00;;;;;;5032283;28;20448;-82
2023/03/18 02:17:12;;;;;;;6.45;2.97;;;-0.90;64.80;;;;;;5028026;28;20478;-82
2023/03/18 02:20:08;;;;;;;4.38;2.60;;;-0.90;64.00;;;;;;5031419;28;20026;-81
2023/03/18 02:22:45;;;;;;;8.63;2.75;;;-0.90;64.10;;;;;;5032247;28;20418;-82
2023/03/18 02:25:44;;;;;;;5.72;3.03;;;-1.00;64.40;;;;;;5029848;28;20439;-81
2023/03/18 02:28:15;;;;;;;6.72;2.33;;;-1.00;64.60;;;;;;5004827;28;20034;-81
2023/03/18 02:30:47;;;;;;;2.63;2.20;;;-1.00;64.60;;;;;;5030362;28;20375;-82
2023/03/18 02:33:15;;;;;;;4.82;3.03;;;-1.10;64.80;;;;;;5022658;28;20026;-82
2023/03/18 02:35:44;;;;;;;6.32;2.53;;;-1.00;65.00;;;;;;5021179;28;20030;-82
2023/03/18 02:38:10;;;;;;;6.40;3.00;;;-1.10;65.00;;;;;;5025694;28;20025;-81
2023/03/18 02:40:40;;;;;;;4.28;2.35;;;-1.10;65.20;;;;;;5020618;28;20029;-82
2023/03/18 02:43:29;;;;;;;7.35;2.65;;;-1.10;65.40;;;;;;5029277;28;20025;-81
2023/03/18 02:46:00;;;;;;;5.45;2.78;;;-1.20;65.70;;;;;;5032788;28;20052;-80
2023/03/18 02:48:33;;;;;;;7.38;2.53;;;-1.20;65.80;;;;;;5021182;28;20025;-81
2023/03/18 02:50:59;;;;;;;3.75;2.58;;;-1.20;66.00;;;;;;5036976;28;20018;-81
2023/03/18 02:53:25;;;;;;;5.47;2.33;;;-1.20;65.80;;;;;;5029801;28;20022;-80
2023/03/18 02:55:51;;;;;;;5.55;2.90;;;-1.20;65.90;;;;;;5025563;28;20030;-81
2023/03/18 02:58:17;;;;;;;5.43;3.45;;;-1.20;65.90;;;;;;5027051;28;20026;-82
2023/03/18 03:00:43;;;;;;;7.10;2.70;;;-1.20;66.10;;;;;;5025884;28;20157;-81
2023/03/18 03:03:09;;;;;;;6.63;3.45;;;-1.30;66.20;;;;;;5022009;28;20026;-82
2023/03/18 03:05:35;;;;;;;12.23;3.83;;;-1.30;66.50;;;;;;5014012;28;20034;-81
2023/03/18 03:08:01;;;;;;;6.60;4.55;;;-1.30;66.40;;;;;;5013256;28;20025;-83
2023/03/18 03:10:28;;;;;;;9.05;3.63;;;-1.30;66.50;;;;;;5013374;28;20029;-82
2023/03/18 03:12:54;;;;;;;5.35;3.10;;;-1.30;66.60;;;;;;5014883;28;20022;-81
2023/03/18 03:15:19;;;;;;;7.85;4.28;;;-1.30;66.50;;;;;;5029322;28;20033;-82
2023/03/18 03:17:47;;;;;;;14.00;5.28;;;-1.40;66.40;;;;;;5026003;28;20060;-81
2023/03/18 03:20:14;;;;;;;8.55;3.40;;;-1.40;66.60;;;;;;5038208;28;20455;-83
2023/03/18 03:22:41;;;;;;;5.78;3.15;;;-1.40;66.60;;;;;;5037599;28;20033;-81
2023/03/18 03:25:08;;;;;;;6.55;2.83;;;-1.40;66.70;;;;;;5031888;28;20021;-81
2023/03/18 03:27:35;;;;;;;6.28;3.22;;;-1.40;66.40;;;;;;5037065;28;20029;-82
2023/03/18 03:30:01;;;;;;;10.73;3.00;;;-1.40;66.20;;;;;;5035792;28;20033;-83
2023/03/18 03:32:28;;;;;;;7.38;3.22;;;-1.40;66.30;;;;;;5022369;28;20377;-81
2023/03/18 03:34:54;;;;;;;5.40;3.15;;;-1.40;66.10;;;;;;5026272;28;20018;-81
2023/03/18 03:37:20;;;;;;;6.10;2.80;;;-1.40;66.20;;;;;;5028992;28;20517;-82
2023/03/18 03:39:45;;;;;;;5.00;2.83;;;-1.40;66.30;;;;;;5025596;28;20021;-82
2023/03/18 03:42:11;;;;;;;7.57;3.85;;;-1.40;66.70;;;;;;5027485;28;20027;-82
2023/03/18 03:44:37;;;;;;;7.40;4.53;;;-1.40;66.80;;;;;;5028130;28;20084;-82
2023/03/18 03:47:03;;;;;;;16.20;5.70;;;-1.30;67.20;;;;;;5026842;28;20067;-81
2023/03/18 03:49:29;;;;;;;6.97;2.58;;;-1.30;67.70;;;;;;5029344;28;20060;-81
2023/03/18 03:51:55;;;;;;;4.85;2.65;;;-1.30;67.50;;;;;;5022814;28;20030;-80
2023/03/18 03:54:24;;;;;;;6.38;3.05;;;-1.30;67.30;;;;;;5027865;28;20017;-81
2023/03/18 03:56:50;;;;;;;5.82;4.63;;;-1.30;67.00;;;;;;5023734;28;20034;-82
2023/03/18 03:59:17;;;;;;;6.18;2.58;;;-1.40;67.10;;;;;;5027908;28;20467;-81
2023/03/18 04:01:43;;;;;;;13.05;4.60;;;-1.40;67.50;;;;;;5024273;28;20513;-84
2023/03/18 04:04:09;;;;;;;3.70;2.22;;;-1.40;67.70;;;;;;5022944;28;20025;-81
2023/03/18 04:06:35;;;;;;;6.88;2.75;;;-1.40;67.90;;;;;;5016436;28;20021;-83
2023/03/18 04:09:02;;;;;;;7.13;2.80;;;-1.30;67.60;;;;;;5032614;28;20029;-80
2023/03/18 04:11:28;;;;;;;13.70;4.57;;;-1.40;67.70;;;;;;5035473;28;20467;-81
2023/03/18 04:13:54;;;;;;;4.47;2.83;;;-1.30;68.30;;;;;;5028553;28;20034;-81
2023/03/18 04:16:21;;;;;;;6.90;2.40;;;-1.30;68.40;;;;;;5017078;28;20038;-83
2023/03/18 04:18:47;;;;;;;7.65;3.33;;;-1.20;68.10;;;;;;5013775;28;20084;-82
2023/03/18 04:21:13;;;;;;;7.35;3.00;;;-1.00;68.30;;;;;;5013596;28;20022;-84
2023/03/18 04:23:39;;;;;;;5.82;2.55;;;-0.80;68.10;;;;;;5011457;28;20022;-82
2023/03/18 04:26:06;;;;;;;4.65;2.63;;;-0.50;68.00;;;;;;5024792;28;20534;-82
2023/03/18 04:28:32;;;;;;;6.88;3.20;;;-0.10;67.60;;;;;;5025944;28;20067;-82
2023/03/18 04:30:58;;;;;;;6.68;3.42;;;-0.10;66.10;;;;;;5022993;28;20021;-81
2023/03/18 04:33:24;;;;;;;7.15;3.13;;;-0.20;65.50;;;;;;5016946;28;20049;-81
2023/03/18 04:35:51;;;;;;;5.47;2.60;;;-0.40;66.20;;;;;;5009120;28;20026;-82
2023/03/18 04:38:17;;;;;;;4.22;2.78;;;-0.60;66.60;;;;;;5011608;28;20018;-83
2023/03/18 04:40:44;;;;;;;5.43;3.40;;;-0.80;67.10;;;;;;5004069;28;20364;-83
2023/03/18 04:43:10;;;;;;;4.72;2.88;;;-0.90;67.70;;;;;;5017921;28;20022;-83
2023/03/18 04:45:36;;;;;;;5.38;2.70;;;-1.00;68.00;;;;;;5035686;28;20055;-83
2023/03/18 04:48:03;;;;;;;7.07;3.88;;;-1.10;68.50;;;;;;5038507;28;20028;-82
2023/03/18 04:50:29;;;;;;;4.90;2.83;;;-1.10;69.20;;;;;;5038861;28;20029;-82
2023/03/18 04:52:54;;;;;;;7.25;3.30;;;-1.10;69.40;;;;;;5034174;28;20029;-83
2023/03/18 04:55:20;;;;;;;8.73;3.38;;;-1.10;69.30;;;;;;5034251;28;20041;-81
2023/03/18 04:57:47;;;;;;;10.85;4.55;;;-1.10;69.10;;;;;;5035151;28;20025;-81
2023/03/18 05:00:21;;;;;;;5.63;3.03;;;-1.10;69.30;;;;;;5035592;28;20426;-81
2023/03/18 05:02:47;;;;;;;11.35;3.35;;;-1.20;69.60;;;;;;5013362;28;20052;-82
2023/03/18 05:05:13;;;;;;;10.35;3.88;;;-1.10;69.70;;;;;;5026826;28;20086;-83
2023/03/18 05:07:41;;;;;;;7.43;3.35;;;-1.20;69.70;;;;;;5016970;28;20061;-80
2023/03/18 05:10:08;;;;;;;9.93;3.30;;;-1.10;69.70;;;;;;5033078;28;20022;-80
2023/03/18 05:12:35;;;;;;;3.53;2.90;;;-1.10;69.40;;;;;;5035601;28;20025;-81
2023/03/18 05:15:01;;;;;;;11.35;3.35;;;-1.10;69.20;;;;;;5033643;28;20022;-82
2023/03/18 05:17:28;;;;;;;9.40;3.33;;;-1.10;69.20;;;;;;5026825;28;20431;-81
2023/03/18 05:19:55;;;;;;;9.05;4.68;;;-1.10;69.10;;;;;;5017843;28;20025;-81
2023/03/18 05:22:25;;;;;;;2.88;2.63;;;-1.00;69.10;;;;;;5033226;28;20483;-81
2023/03/18 05:24:52;;;;;;;10.10;3.45;;;-1.00;69.00;;;;;;5029541;28;20410;-81
2023/03/18 05:27:21;;;;;;;6.68;3.25;;;-0.90;68.80;;;;;;5031896;28;20087;-82
2023/03/18 05:29:47;;;;;;;8.23;3.92;;;-0.90;68.70;;;;;;5027328;28;20467;-82
2023/03/18 05:32:13;;;;;;;5.75;2.95;;;-0.80;68.50;;;;;;5021598;28;20061;-86
2023/03/18 05:34:40;;;;;;;6.40;3.33;;;-0.80;68.60;;;;;;5019619;28;20503;-85
2023/03/18 05:37:08;;;;;;;5.93;3.58;;;-0.70;68.80;;;;;;5024298;28;20037;-85
2023/03/18 05:39:46;;;;;;;6.65;2.95;;;-0.70;68.20;;;;;;5020661;28;20022;-83
2023/03/18 05:42:13;;;;;;;11.93;5.22;;;-0.60;67.90;;;;;;5024117;28;20064;-83
2023/03/18 05:44:41;;;;;;;6.40;3.33;;;-0.60;68.00;;;;;;5014402;28;20022;-83
2023/03/18 05:47:10;;;;;;;8.18;4.97;;;-0.60;68.00;;;;;;5018466;28;20028;-82
2023/03/18 05:49:36;;;;;;;10.27;3.25;;;-0.50;67.80;;;;;;5024534;28;20017;-82
2023/03/18 05:52:03;;;;;;;7.97;2.53;;;-0.50;67.70;;;;;;5025527;28;20025;-85
2023/03/18 05:54:29;;;;;;;10.77;3.33;;;-0.40;67.30;;;;;;5033769;28;20025;-84
2023/03/18 05:56:58;;;;;;;8.23;3.10;;;-0.40;67.10;;;;;;5020242;28;20057;-86
2023/03/18 05:59:24;;;;;;;5.10;3.50;;;-0.40;67.20;;;;;;5027200;28;20034;-86
2023/03/18 06:01:52;;;;;;;4.68;2.50;;;-0.40;66.90;;;;;;5033172;28;20076;-84
2023/03/18 06:04:18;;;;;;;4.88;3.15;;;-0.30;67.00;;;;;;5037124;28;20018;-85
2023/03/18 06:06:45;;;;;;;4.05;2.53;;;-0.30;67.00;;;;;;5016252;28;20045;-85
2023/03/18 06:09:13;;;;;;;8.55;3.63;;;-0.30;67.20;;;;;;5030502;28;20033;-84
2023/03/18 06:11:44;;;;;;;7.82;3.17;;;-0.30;67.30;;;;;;5016949;28;20071;-85
2023/03/18 06:14:11;;;;;;;6.60;3.65;;;-0.20;67.20;;;;;;5046485;28;20085;-85
2023/03/18 06:16:37;;;;;;;9.30;2.30;;;-0.20;66.70;;;;;;5044320;28;20022;-85
2023/03/18 06:19:04;;;;;;;5.45;3.28;;;-0.20;66.70;;;;;;5037759;28;20025;-83
2023/03/18 06:21:31;;;;;;;4.82;2.00;;;-0.10;66.60;;;;;;5045329;28;20021;-87
2023/03/18 06:23:57;;;;;;;;;;;-0.10;66.40;;;;;;5046082;28;20099;-85
2023/03/18 06:26:23;;;;;;;8.25;2.63;;;0.00;66.70;;;;;;5042830;28;19904;-82
2023/03/18 06:28:49;;;;;;;13.80;4.95;;;0.00;66.60;;;;;;5035890;28;20029;-85
2023/03/18 06:31:16;;;;;;;5.35;2.45;;;0.10;66.40;;;;;;5036503;28;20040;-85
2023/03/18 06:33:42;;;;;;;8.43;3.25;;;0.10;66.10;;;;;;5041604;28;20021;-84
2023/03/18 06:36:09;;;;;;;12.55;4.47;;;0.10;66.20;;;;;;5038037;28;20039;-82
2023/03/18 06:38:35;;;;;;;8.93;2.50;;;0.20;66.60;;;;;;5035528;28;20018;-86
2023/03/18 06:41:01;;;;;;;5.00;2.67;;;0.20;66.20;;;;;;5034176;28;20403;-85
2023/03/18 06:43:27;;;;;;;9.73;4.25;;;0.30;65.30;;;;;;5021999;28;20022;-85
2023/03/18 06:45:53;;;;;;;6.28;3.80;;;0.30;65.30;;;;;;5028777;28;20025;-85
2023/03/18 06:48:19;;;;;;;8.70;3.22;;;0.30;65.10;;;;;;5028054;28;20049;-86
2023/03/18 06:50:45;;;;;;;6.88;2.63;;;0.30;65.40;;;;;;5030876;28;20025;-86
2023/03/18 06:53:11;;;;;;;5.68;3.33;;;0.40;64.90;;;;;;5024385;28;20049;-85
2023/03/18 06:55:38;;;;;;;8.40;2.58;;;0.40;65.20;;;;;;5020986;28;20044;-85
2023/03/18 06:58:04;;;;;;;6.43;2.70;;;0.50;64.60;;;;;;5035842;28;20032;-84
2023/03/18 07:00:32;;;;;;;4.85;1.98;;;0.50;64.70;;;;;;5025517;28;20030;-84
2023/03/18 07:03:03;;;;;;;6.32;3.45;;;0.60;64.00;;;;;;5021669;28;20046;-86
2023/03/18 07:05:29;;;;;;;7.72;3.22;;;0.60;64.10;;;;;;5019758;28;20368;-84
2023/03/18 07:07:55;;;;;;;6.78;3.20;;;0.70;65.00;;;;;;5018819;28;20025;-85
2023/03/18 07:10:28;;;;;;;12.38;2.75;;;0.70;64.10;;;;;;5033317;28;20026;-85
2023/03/18 07:12:54;;;;;;;8.63;2.78;;;0.80;64.00;;;;;;5032157;28;20018;-85
2023/03/18 07:15:21;;;;;;;6.07;2.80;;;0.90;63.70;;;;;;5028593;28;20410;-86
2023/03/18 07:17:49;;;;;;;8.93;3.85;;;1.00;62.70;;;;;;5025966;28;20055;-87
2023/03/18 07:20:15;;;;;;;9.75;4.15;;;1.10;61.80;;;;;;5031727;28;20034;-86
2023/03/18 07:22:44;;;;;;;9.00;5.30;;;1.20;61.90;;;;;;5031922;28;20364;-84
2023/03/18 07:25:10;;;;;;;6.95;3.13;;;1.20;61.50;;;;;;5031739;28;20066;-84
2023/03/18 07:27:36;;;;;;;9.93;3.70;;;1.30;61.20;;;;;;5022081;28;20034;-85
2023/03/18 07:30:03;;;;;;;7.65;4.03;;;1.40;61.10;;;;;;5025466;28;20117;-83
2023/03/18 07:32:29;;;;;;;6.07;3.20;;;1.60;60.80;;;;;;5031617;28;20471;-83
2023/03/18 07:34:56;;;;;;;13.32;3.97;;;2.70;59.60;;;;;;5014651;28;20145;-85
2023/03/18 07:37:22;;;;;;;5.25;3.17;;;4.70;59.50;;;;;;5029746;28;20105;-82
2023/03/18 07:39:48;;;;;;;6.80;3.83;;;7.10;54.10;;;;;;5019872;28;20025;-86
2023/03/18 07:42:14;;;;;;;13.50;4.30;;;9.40;50.00;;;;;;5026784;28;20048;-85
2023/03/18 07:44:41;;;;;;;7.60;4.30;;;11.70;46.50;;;;;;5025173;28;20093;-85
2023/03/18 07:47:07;;;;;;;5.90;3.38;;;;;;;;;;5024759;28;20021;-86
2023/03/18 07:49:33;;;;;;;20.20;4.93;;;14.20;38.50;;;;;;5022473;28;20428;-87
2023/03/18 07:52:00;;;;;;;9.38;4.28;;;14.70;36.60;;;;;;5022094;28;20169;-86
2023/03/18 07:54:27;;;;;;;10.45;4.18;;;;;;;;;;5023670;28;20024;-86
2023/03/18 07:56:53;;;;;;;16.50;4.80;;;15.40;34.20;;;;;;5020518;28;20034;-86
2023/03/18 07:59:19;;;;;;;11.35;5.18;;;;;;;;;;5027616;28;20028;-86
2023/03/18 08:01:46;;;;;;;11.30;4.95;;;17.20;32.00;;;;;;5020520;28;20396;-85
2023/03/18 08:04:12;;;;;;;8.65;3.88;;;;;;;;;;5023609;28;20026;-87
2023/03/18 08:06:38;;;;;;;6.00;3.83;;;18.40;29.60;;;;;;5018022;28;20018;-86
2023/03/18 08:09:04;;;;;;;12.77;5.20;;;18.80;28.90;;;;;;5036375;28;20076;-86
2023/03/18 08:11:32;;;;;;;8.35;3.30;;;18.00;28.20;;;;;;5032192;28;20018;-87
2023/03/18 08:13:58;;;;;;;7.38;3.05;;;17.70;28.00;;;;;;5022222;28;20018;-86
2023/03/18 08:16:24;;;;;;;11.23;3.40;;;17.90;28.70;;;;;;5033352;28;20034;-86
2023/03/18 08:18:50;;;;;;;7.53;3.08;;;18.20;27.80;;;;;;5038107;28;20017;-85
2023/03/18 08:21:17;;;;;;;19.02;6.10;;;18.50;27.40;;;;;;5044742;28;20029;-86
2023/03/18 08:23:43;;;;;;;4.70;3.03;;;17.90;28.10;;;;;;5049552;28;20040;-85
2023/03/18 08:26:10;;;;;;;9.07;3.95;;;17.80;27.40;;;;;;5044910;28;20037;-85
2023/03/18 08:28:36;;;;;;;8.13;3.80;;;17.80;27.80;;;;;;5034042;28;20226;-87
2023/03/18 08:31:03;;;;;;;7.70;4.22;;;18.50;28.10;;;;;;5037241;28;20033;-87
2023/03/18 08:33:30;;;;;;;8.57;4.55;;;19.40;28.10;;;;;;5037197;28;20017;-88
2023/03/18 08:35:57;;;;;;;7.85;3.40;;;20.00;26.90;;;;;;5046706;28;20033;-85
2023/03/18 08:38:23;;;;;;;10.20;3.85;;;;;;;;;;5038215;28;20022;-85
2023/03/18 08:40:50;;;;;;;7.80;4.45;;;21.00;25.50;;;;;;5040158;28;20033;-85
2023/03/18 08:43:16;;;;;;;6.20;4.00;;;20.70;25.80;;;;;;5016972;28;20026;-86
2023/03/18 08:45:43;;;;;;;7.45;3.90;;;20.90;26.40;;;;;;5007155;28;20026;-87
2023/03/18 08:48:09;;;;;;;26.02;5.80;;;21.50;26.30;;;;;;5024552;28;20105;-84
2023/03/18 08:50:36;;;;;;;7.38;4.10;;;22.10;26.10;;;;;;5028790;28;20056;-86
2023/03/18 08:53:03;;;;;;;12.23;4.75;;;;;;;;;;5028135;28;20033;-85
2023/03/18 08:55:35;;;;;;;10.52;3.00;;;23.50;24.50;;;;;;5026909;28;20483;-84
2023/03/18 08:58:04;;;;;;;8.82;3.40;;;23.70;24.30;;;;;;5020700;28;20022;-82
2023/03/18 09:00:31;;;;;;;5.82;3.13;;;23.40;23.50;;;;;;5034585;28;20049;-84
2023/03/18 09:02:57;;;;;;;5.57;2.60;;;22.30;23.30;;;;;;5045609;28;20124;-85
2023/03/18 09:05:25;;;;;;;4.13;2.08;;;20.50;23.80;;;;;;5029144;28;20467;-85
2023/03/18 09:07:52;;;;;;;3.92;2.50;;;19.40;23.60;;;;;;5023514;28;20060;-85
2023/03/18 09:10:18;;;;;;;6.55;2.60;;;18.30;24.10;;;;;;5035847;28;20105;-85
2023/03/18 09:12:45;;;;;;;8.63;3.17;;;18.10;25.20;;;;;;5034855;28;20045;-85
2023/03/18 09:15:13;;;;;;;5.80;2.47;;;19.20;24.90;;;;;;5026837;28;20025;-84
2023/03/18 09:17:40;;;;;;;4.10;2.00;;;20.00;24.30;;;;;;5023059;28;20022;-84
2023/03/18 09:20:10;;;;;;;6.17;2.60;;;20.80;23.20;;;;;;5020169;28;20034;-85
2023/03/18 09:22:37;;;;;;;4.25;2.50;;;20.20;23.70;;;;;;5026803;28;20030;-84
2023/03/18 09:25:04;;;;;;;6.90;2.75;;;20.40;23.70;;;;;;5028727;28;20029;-85
2023/03/18 09:27:31;;;;;;;5.37;3.67;;;20.50;24.30;;;;;;5020037;28;20092;-87
2023/03/18 09:29:57;;;;;;;7.22;3.88;;;21.30;25.20;;;;;;5019562;28;20026;-86
2023/03/18 09:32:23;;;;;;;5.95;2.90;;;21.20;23.20;;;;;;5021482;28;20090;-86
2023/03/18 09:34:50;;;;;;;4.43;3.30;;;21.20;24.30;;;;;;5023265;28;20022;-87
2023/03/18 09:37:17;;;;;;;9.05;5.75;;;21.60;23.60;;;;;;5021573;28;20106;-86
2023/03/18 09:39:43;;;;;;;4.43;2.75;;;21.80;22.80;;;;;;5020618;28;20033;-88
2023/03/18 09:42:27;;;;;;;6.35;3.08;;;20.90;22.90;;;;;;5013575;28;20040;-87
2023/03/18 09:45:00;;;;;;;11.90;6.13;;;19.90;23.10;;;;;;5040235;28;20033;-85
2023/03/18 09:47:44;;;;;;;12.23;4.65;;;19.40;23.90;;;;;;5006246;28;20038;-86
2023/03/18 09:50:29;;;;;;;4.63;3.40;;;19.40;24.60;;;;;;5013788;28;20124;-83
2023/03/18 09:53:00;;;;;;;4.53;2.97;;;19.80;23.80;;;;;;5015961;28;20092;-85
2023/03/18 09:55:39;;;;;;;7.57;3.28;;;19.60;23.50;;;;;;5019766;28;20034;-84
2023/03/18 09:58:17;;;;;;;7.93;3.53;;;19.50;24.10;;;;;;5028214;28;20486;-87
2023/03/18 10:00:43;;;;;;;6.82;3.47;;;20.20;23.80;;;;;;5029620;28;20018;-84
2023/03/18 10:03:13;;;;;;;12.23;5.37;;;21.00;23.50;;;;;;5034114;28;20045;-86
2023/03/18 10:06:15;;;;;;;6.43;3.40;;;21.90;23.20;;;;;;5023768;28;20264;-85
2023/03/18 10:08:57;;;;;;;6.15;3.78;;;22.00;23.10;;;;;;5030592;28;20044;-85
2023/03/18 10:11:52;;;;;;;7.47;3.83;;;21.70;22.90;;;;;;5044243;28;20025;-85
2023/03/18 10:14:30;;;;;;;5.82;3.00;;;21.20;22.90;;;;;;5024585;28;20033;-85
2023/03/18 10:17:05;;;;;;;8.73;3.38;;;;;;;;;;5031469;28;20045;-87
2023/03/18 10:19:34;;;;;;;6.53;3.15;;;22.70;22.60;;;;;;5019265;28;20019;-92
2023/03/18 10:22:34;;;;;;;7.88;3.03;;;24.20;21.90;;;;;;5016210;28;20018;-87
2023/03/18 10:25:18;;;;;;;6.70;3.08;;;24.20;22.40;;;;;;5020116;28;20528;-87
2023/03/18 10:28:26;;;;;;;4.82;2.85;;;22.30;22.10;;;;;;5027594;28;20086;-86
2023/03/18 10:31:36;;;;;;;7.55;2.92;;;20.20;23.10;;;;;;5005321;28;20022;-86
2023/03/18 10:34:25;;;;;;;8.80;3.25;;;16.00;24.40;;;;;;5014760;28;20156;-88
2023/03/18 10:37:17;;;;;;;6.20;3.78;;;15.40;25.20;;;;;;5033481;28;20034;-84
2023/03/18 10:39:44;;;;;;;7.60;3.15;;;12.40;25.70;;;;;;5025073;28;20145;-85
2023/03/18 10:42:18;;;;;;;;;;;12.20;26.40;;;;;;5041987;28;20032;-90
2023/03/18 10:44:46;;;;;;;5.65;2.80;;;11.20;27.60;;;;;;5039441;28;19905;-90
2023/03/18 10:47:27;;;;;;;10.85;3.10;;;10.00;27.20;;;;;;5040321;28;20064;-92
2023/03/18 10:50:17;;;;;;;4.43;2.58;;;9.20;27.70;;;;;;5037248;28;20048;-92
2023/03/18 10:53:18;;;;;;;9.70;2.47;;;8.70;28.10;;;;;;5025208;28;20030;-91
2023/03/18 10:56:18;;;;;;;4.63;2.00;;;8.20;28.60;;;;;;5015572;28;20048;-94
2023/03/18 10:58:45;;;;;;;8.63;3.47;;;;;;;;;;4973067;28;20042;-85
2023/03/18 11:01:14;;;;;;;5.20;2.63;;;7.20;28.90;;;;;;5032278;28;20056;-87
2023/03/18 11:03:50;;;;;;;4.47;2.75;;;6.70;29.70;;;;;;5032147;28;20008;-93
2023/03/18 11:06:47;;;;;;;7.78;2.85;;;6.50;30.20;;;;;;5027090;28;20029;-89
2023/03/18 11:09:18;;;;;;;5.93;2.60;;;6.50;30.70;;;;;;5034987;28;20029;-90
2023/03/18 11:11:48;;;;;;;4.30;1.95;;;6.50;30.70;;;;;;5043176;28;20530;-90
2023/03/18 11:14:19;;;;;;;3.55;2.00;;;6.40;30.80;;;;;;5013961;28;20101;-91
2023/03/18 11:16:56;;;;;;;5.57;2.17;;;6.50;31.00;;;;;;5032548;28;20112;-91
2023/03/18 11:19:38;;;;;;;3.83;2.42;;;6.40;31.20;;;;;;5006382;28;20057;-87
2023/03/18 11:22:25;;;;;;;5.43;2.50;;;6.40;31.50;;;;;;5001158;28;20088;-86
2023/03/18 11:25:01;;;;;;;;;;;6.40;31.90;;;;;;5018825;28;20068;-87
2023/03/18 11:27:40;;;;;;;5.13;2.15;;;6.20;32.40;;;;;;5003629;28;19905;-83
2023/03/18 11:30:22;;;;;;;3.65;2.15;;;6.00;32.60;;;;;;5019253;28;20032;-85
2023/03/18 11:32:57;;;;;;;4.47;2.22;;;5.90;32.30;;;;;;5010128;28;20476;-86
2023/03/18 11:35:31;;;;;;;4.35;1.80;;;5.90;32.50;;;;;;5018664;28;20457;-87
2023/03/18 11:38:12;;;;;;;7.10;1.98;;;6.00;32.30;;;;;;5003298;28;20022;-88
2023/03/18 11:40:42;;;;;;;6.07;2.00;;;5.80;31.90;;;;;;5009490;28;20133;-88
2023/03/18 11:43:24;;;;;;;5.70;1.80;;;5.90;32.30;;;;;;5023057;28;20052;-88
2023/03/18 11:45:56;;;;;;;2.92;1.83;;;5.80;32.30;;;;;;5013697;28;20038;-86
2023/03/18 11:48:42;;;;;;;4.05;2.50;;;5.90;31.90;;;;;;5023183;28;20029;-89
2023/03/18 11:51:36;;;;;;;3.38;1.50;;;5.80;31.40;;;;;;5026305;28;20030;-85
2023/03/18 11:54:16;;;;;;;5.90;1.77;;;5.60;30.90;;;;;;5029523;28;20037;-88
2023/03/18 11:57:10;;;;;;;2.30;1.38;;;5.50;31.10;;;;;;5034052;28;20034;-86
2023/03/18 11:59:58;;;;;;;3.30;1.45;;;5.60;31.10;;;;;;5025997;28;20022;-87
2023/03/18 12:02:48;;;;;;;18.45;2.78;;;5.60;31.60;;;;;;5037081;28;20030;-87
2023/03/18 12:05:40;;;;;;;12.20;3.70;;;5.60;32.10;;;;;;5026722;28;20026;-84
2023/03/18 12:08:15;;;;;;;5.80;2.20;;;5.70;32.20;;;;;;5015015;28;20060;-86
2023/03/18 12:10:52;;;;;;;6.70;2.05;;;5.80;32.20;;;;;;5011852;28;20389;-87
2023/03/18 12:13:47;;;;;;;6.60;2.33;;;5.80;33.00;;;;;;5021970;28;20111;-85
2023/03/18 12:16:40;;;;;;;3.53;1.83;;;5.80;32.00;;;;;;4996573;28;20031;-86
2023/03/18 12:19:28;;;;;;;8.18;4.47;;;5.60;32.10;;;;;;5023118;28;20038;-87
2023/03/18 12:22:16;;;;;;;4.40;1.58;;;5.60;32.30;;;;;;5036641;28;20029;-85
2023/03/18 12:25:00;;;;;;;6.47;2.47;;;5.70;32.70;;;;;;5019280;28;20427;-87
2023/03/18 12:27:51;;;;;;;8.52;2.83;;;5.70;32.90;;;;;;5021705;28;20022;-85
2023/03/18 12:30:48;;;;;;;4.05;2.08;;;5.90;33.10;;;;;;5020779;28;20017;-84
2023/03/18 12:33:17;;;;;;;4.68;1.83;;;6.10;32.40;;;;;;5019552;28;20145;-86
2023/03/18 12:36:16;;;;;;;5.60;2.28;;;6.50;32.30;;;;;;5018762;28;20182;-84
2023/03/18 12:39:18;;;;;;;4.90;2.10;;;6.70;32.10;;;;;;5039322;28;20097;-86
2023/03/18 12:42:12;;;;;;;4.00;1.92;;;6.80;32.00;;;;;;5028733;28;20025;-86
2023/03/18 12:45:08;;;;;;;5.35;2.85;;;6.50;32.10;;;;;;5019412;28;20030;-83
2023/03/18 12:48:03;;;;;;;3.92;2.10;;;6.20;32.50;;;;;;5012630;28;20096;-83
2023/03/18 12:50:46;;;;;;;8.38;2.03;;;6.00;32.80;;;;;;5020204;28;20172;-84
2023/03/18 12:53:24;;;;;;;3.05;1.63;;;5.90;33.20;;;;;;5017164;28;20050;-84
2023/03/18 12:56:00;;;;;;;2.75;1.92;;;5.80;32.50;;;;;;5033731;28;20479;-88
2023/03/18 12:59:05;;;;;;;8.95;1.98;;;5.70;32.30;;;;;;5023478;28;20029;-85
2023/03/18 13:01:39;;;;;;;5.45;2.30;;;5.70;32.80;;;;;;5011858;28;20495;-88
2023/03/18 13:04:14;;;;;;;5.80;2.03;;;5.70;32.70;;;;;;5011301;28;20045;-88
2023/03/18 13:06:50;;;;;;;7.22;1.63;;;5.70;32.50;;;;;;5020889;28;20032;-86
2023/03/18 13:09:34;;;;;;;5.90;2.33;;;5.60;32.50;;;;;;5027759;28;20061;-84
2023/03/18 13:12:23;;;;;;;7.82;2.35;;;5.70;32.90;;;;;;5014787;28;20081;-85
2023/03/18 13:15:12;;;;;;;5.35;2.30;;;5.70;33.30;;;;;;5026429;28;20017;-88